Ocotal, Nicaragua

7:55 PM CST on December 03, 2016 (GMT -0600)
Telpaneca | | Change Station

Elev 3127 ft 13.50 °N, 86.20 °W | Updated 48 minutes ago

Scattered Clouds
Scattered Clouds
69.6 °F
Feels Like 69.6 °F
N
2.0
Wind Variable Wind from SE
Gusts 2.0 mph

Today
High -- | Low -- °F
--% Chance of Precip.
Yesterday
High -- | Low -- °F
Precip. -- in
Pressure 29.83 in
Visibility 6.2 miles
Clouds Scattered Clouds 2000 ft
Dew Point 65 °F
Humidity 86%
Rainfall 0.00 in
Snow Depth Not available.
5:54 AM 5:17 PM
Waxing Crescent, 18% visible
METAR MNJG 032300Z 36004KT 9999 SCT020 23/18 Q1010
Pressure 29.83 in
Visibility 6.2 miles
Clouds Scattered Clouds 2000 ft
Dew Point 65 °F
Humidity 86%
Rainfall 0.00 in
Snow Depth Not available.
5:54 AM 5:17 PM
Waxing Crescent, 18% visible
METAR MNJG 032300Z 36004KT 9999 SCT020 23/18 Q1010

10-Day Weather Forecast

No radar image for this location.
×

Almanac

Astronomy

Dec. 03, 2016 Rise Set
Actual Time
Civil Twilight
Nautical Twilight
Astronomical Twilight
Moon
Length of Visible Light
Length of Day
Tomorrow will be .
, % of the Moon is Illuminated

Today's Extremes

Country Highs Country Lows

Community

WunderPhotos

Upload Photos

1,955,560 photos uploaded!

WunderBlog® & News

Nearby

Air Quality

  Air Quality AQ Index Pollutant
Not available.

Snow Depth

Station Depth Elevation

Earthquake Activity

City Distance Mag. Time & Date
Minimum magnitude displayed is 2.5.

Coastal Water Temperatures

Place Temperature

Stations

Nearby Weather Stations

Station Location Temp. Windchill Dew Point Humidity Wind Precip. Elev Updated Type